Overview Statistics Trail Chart Weather Telemetry Raw packets
 

This is the latest recevied weather packets stored in our database for station/object TA2LKM-11. If no packets are shown the sender has not sent any weather packets the latest 10 day(s).

<< 39 40 41 42 43 44 45 >>
Time Temp. Humidity Pressure Rain* Wind** Luminosity Snow
1788047213 22.78° C 60% 1017 hPa - - - -
1788046312 22.22° C 63% 1016.8 hPa - - - -
1788045411 21.67° C 65% 1016.3 hPa - - - -
1788044511 22.78° C 63% 1016.2 hPa - - - -
1788043610 22.78° C 62% 1016.3 hPa - - - -
1788042709 22.78° C 62% 1016.3 hPa - - - -
1788041809 22.78° C 62% 1016.3 hPa - - - -
1788040908 23.33° C 61% 1016.2 hPa - - - -
1788040874 23.33° C 61% 1016.2 hPa - - - -
1788039974 23.33° C 61% 1016.1 hPa - - - -
1788039073 23.89° C 59% 1016.2 hPa - - - -
1788038172 23.89° C 58% 1016.2 hPa - - - -
1788037271 24.44° C 57% 1016.3 hPa - - - -
1788036371 24.44° C 57% 1016.3 hPa - - - -
1788035469 25° C 55% 1016.3 hPa - - - -
1788028385 33.33° C 100% 764.9 hPa - - - -
1788027485 33.33° C 100% 764.9 hPa - - - -
1788026584 33.33° C 100% 764.9 hPa - - - -
1788025683 33.33° C 100% 764.9 hPa - - - -
1788024782 33.33° C 100% 764.9 hPa - - - -
1788023882 33.33° C 100% 764.9 hPa - - - -
1788022981 33.33° C 100% 764.9 hPa - - - -
1788022080 33.33° C 100% 764.9 hPa - - - -
1788021180 33.33° C 100% 764.9 hPa - - - -
1788020279 33.33° C 100% 764.9 hPa - - - -

* Rain since midnight (hover to see other rain measurements)
** Current wind speed in m/s (hover to see current wind gust speed)